sensor_id;sensor_type;location;lat;lon;timestamp;P1;durP1;ratioP1;P2;durP2;ratioP2
29380;SDS011;16364;52.490;13.326;2023-01-05T00:02:05;6.43;;;1.97;;
29380;SDS011;16364;52.490;13.326;2023-01-05T00:04:30;4.07;;;1.80;;
29380;SDS011;16364;52.490;13.326;2023-01-05T00:06:55;4.13;;;1.50;;
29380;SDS011;16364;52.490;13.326;2023-01-05T00:09:20;5.13;;;2.17;;
29380;SDS011;16364;52.490;13.326;2023-01-05T00:11:46;9.33;;;1.87;;
29380;SDS011;16364;52.490;13.326;2023-01-05T00:14:30;6.10;;;2.00;;
29380;SDS011;16364;52.490;13.326;2023-01-05T00:17:19;2.73;;;1.50;;
29380;SDS011;16364;52.490;13.326;2023-01-05T00:20:04;3.53;;;2.00;;
29380;SDS011;16364;52.490;13.326;2023-01-05T00:22:49;3.83;;;1.70;;
29380;SDS011;16364;52.490;13.326;2023-01-05T00:25:15;3.80;;;1.40;;
29380;SDS011;16364;52.490;13.326;2023-01-05T00:27:41;5.40;;;1.70;;
29380;SDS011;16364;52.490;13.326;2023-01-05T00:30:08;3.77;;;1.70;;
29380;SDS011;16364;52.490;13.326;2023-01-05T00:32:33;3.63;;;1.90;;
29380;SDS011;16364;52.490;13.326;2023-01-05T00:35:00;6.37;;;1.60;;
29380;SDS011;16364;52.490;13.326;2023-01-05T00:37:26;3.17;;;1.20;;
29380;SDS011;16364;52.490;13.326;2023-01-05T00:39:52;3.97;;;1.90;;
29380;SDS011;16364;52.490;13.326;2023-01-05T00:42:18;3.93;;;1.30;;
29380;SDS011;16364;52.490;13.326;2023-01-05T00:44:43;6.33;;;2.53;;
29380;SDS011;16364;52.490;13.326;2023-01-05T00:47:08;3.67;;;1.53;;
29380;SDS011;16364;52.490;13.326;2023-01-05T00:49:34;5.20;;;1.80;;
29380;SDS011;16364;52.490;13.326;2023-01-05T00:51:59;7.57;;;1.50;;
29380;SDS011;16364;52.490;13.326;2023-01-05T00:54:24;7.33;;;1.80;;
29380;SDS011;16364;52.490;13.326;2023-01-05T00:56:50;4.90;;;1.53;;
29380;SDS011;16364;52.490;13.326;2023-01-05T00:59:15;2.90;;;2.13;;
29380;SDS011;16364;52.490;13.326;2023-01-05T01:01:44;7.57;;;2.50;;
29380;SDS011;16364;52.490;13.326;2023-01-05T01:04:09;12.07;;;1.90;;
29380;SDS011;16364;52.490;13.326;2023-01-05T01:06:34;5.70;;;2.27;;
29380;SDS011;16364;52.490;13.326;2023-01-05T01:09:00;7.77;;;1.90;;
29380;SDS011;16364;52.490;13.326;2023-01-05T01:11:25;11.90;;;2.07;;
29380;SDS011;16364;52.490;13.326;2023-01-05T01:13:50;4.10;;;1.70;;
29380;SDS011;16364;52.490;13.326;2023-01-05T01:16:15;4.87;;;2.00;;
29380;SDS011;16364;52.490;13.326;2023-01-05T01:18:41;4.50;;;1.67;;
29380;SDS011;16364;52.490;13.326;2023-01-05T01:21:06;7.23;;;1.80;;
29380;SDS011;16364;52.490;13.326;2023-01-05T01:23:32;8.93;;;1.93;;
29380;SDS011;16364;52.490;13.326;2023-01-05T01:26:05;5.27;;;1.70;;
29380;SDS011;16364;52.490;13.326;2023-01-05T01:28:30;7.60;;;1.60;;
29380;SDS011;16364;52.490;13.326;2023-01-05T01:30:56;3.33;;;1.60;;
29380;SDS011;16364;52.490;13.326;2023-01-05T01:33:21;6.20;;;1.70;;
29380;SDS011;16364;52.490;13.326;2023-01-05T01:35:46;3.70;;;1.67;;
29380;SDS011;16364;52.490;13.326;2023-01-05T01:38:12;5.53;;;1.80;;
29380;SDS011;16364;52.490;13.326;2023-01-05T01:40:38;5.93;;;1.90;;
29380;SDS011;16364;52.490;13.326;2023-01-05T01:43:08;4.27;;;1.40;;
29380;SDS011;16364;52.490;13.326;2023-01-05T01:45:35;5.10;;;1.50;;
29380;SDS011;16364;52.490;13.326;2023-01-05T01:48:00;5.60;;;1.80;;
29380;SDS011;16364;52.490;13.326;2023-01-05T01:50:26;7.00;;;2.50;;
29380;SDS011;16364;52.490;13.326;2023-01-05T01:52:54;4.70;;;1.60;;
29380;SDS011;16364;52.490;13.326;2023-01-05T01:55:20;3.90;;;1.40;;
29380;SDS011;16364;52.490;13.326;2023-01-05T01:57:46;2.33;;;1.40;;
29380;SDS011;16364;52.490;13.326;2023-01-05T02:00:12;3.43;;;1.40;;
29380;SDS011;16364;52.490;13.326;2023-01-05T02:02:39;6.53;;;2.03;;
29380;SDS011;16364;52.490;13.326;2023-01-05T02:05:05;2.13;;;1.30;;
29380;SDS011;16364;52.490;13.326;2023-01-05T02:07:32;5.30;;;1.87;;
29380;SDS011;16364;52.490;13.326;2023-01-05T02:09:58;3.17;;;1.40;;
29380;SDS011;16364;52.490;13.326;2023-01-05T02:12:34;7.30;;;1.63;;
29380;SDS011;16364;52.490;13.326;2023-01-05T02:31:03;5.17;;;1.73;;
29380;SDS011;16364;52.490;13.326;2023-01-05T02:40:58;3.90;;;1.23;;
29380;SDS011;16364;52.490;13.326;2023-01-05T02:43:24;4.20;;;1.33;;
29380;SDS011;16364;52.490;13.326;2023-01-05T02:45:51;8.50;;;1.60;;
29380;SDS011;16364;52.490;13.326;2023-01-05T02:48:16;6.47;;;2.33;;
29380;SDS011;16364;52.490;13.326;2023-01-05T02:50:43;7.37;;;1.97;;
29380;SDS011;16364;52.490;13.326;2023-01-05T02:55:50;5.43;;;1.60;;
29380;SDS011;16364;52.490;13.326;2023-01-05T03:00:42;7.87;;;1.40;;
29380;SDS011;16364;52.490;13.326;2023-01-05T03:03:15;5.00;;;1.60;;
29380;SDS011;16364;52.490;13.326;2023-01-05T03:05:45;4.00;;;1.50;;
29380;SDS011;16364;52.490;13.326;2023-01-05T03:08:13;3.13;;;1.33;;
29380;SDS011;16364;52.490;13.326;2023-01-05T03:10:51;5.20;;;1.60;;
29380;SDS011;16364;52.490;13.326;2023-01-05T03:13:40;5.73;;;1.33;;
29380;SDS011;16364;52.490;13.326;2023-01-05T03:16:07;2.93;;;1.50;;
29380;SDS011;16364;52.490;13.326;2023-01-05T03:18:34;7.43;;;1.67;;
29380;SDS011;16364;52.490;13.326;2023-01-05T03:21:20;6.40;;;1.20;;
29380;SDS011;16364;52.490;13.326;2023-01-05T03:23:45;5.17;;;1.40;;
29380;SDS011;16364;52.490;13.326;2023-01-05T03:26:29;10.53;;;1.37;;
29380;SDS011;16364;52.490;13.326;2023-01-05T03:29:14;2.10;;;1.40;;
29380;SDS011;16364;52.490;13.326;2023-01-05T03:32:02;5.00;;;1.20;;
29380;SDS011;16364;52.490;13.326;2023-01-05T03:37:39;3.50;;;1.30;;
29380;SDS011;16364;52.490;13.326;2023-01-05T03:40:09;2.90;;;1.33;;
29380;SDS011;16364;52.490;13.326;2023-01-05T03:42:36;11.30;;;1.30;;
29380;SDS011;16364;52.490;13.326;2023-01-05T03:45:01;5.13;;;1.10;;
29380;SDS011;16364;52.490;13.326;2023-01-05T03:47:27;5.57;;;1.20;;
29380;SDS011;16364;52.490;13.326;2023-01-05T03:49:52;3.77;;;1.63;;
29380;SDS011;16364;52.490;13.326;2023-01-05T03:52:17;10.20;;;1.63;;
29380;SDS011;16364;52.490;13.326;2023-01-05T03:54:42;4.90;;;1.23;;
29380;SDS011;16364;52.490;13.326;2023-01-05T03:57:08;6.23;;;1.40;;
29380;SDS011;16364;52.490;13.326;2023-01-05T03:59:33;1.47;;;1.07;;
29380;SDS011;16364;52.490;13.326;2023-01-05T04:01:58;4.30;;;1.70;;
29380;SDS011;16364;52.490;13.326;2023-01-05T04:04:23;6.00;;;1.43;;
29380;SDS011;16364;52.490;13.326;2023-01-05T04:06:49;5.13;;;1.20;;
29380;SDS011;16364;52.490;13.326;2023-01-05T04:09:14;2.77;;;1.17;;
29380;SDS011;16364;52.490;13.326;2023-01-05T04:11:39;4.50;;;1.30;;
29380;SDS011;16364;52.490;13.326;2023-01-05T04:14:04;1.40;;;1.10;;
29380;SDS011;16364;52.490;13.326;2023-01-05T04:16:29;2.33;;;1.03;;
29380;SDS011;16364;52.490;13.326;2023-01-05T04:18:55;2.77;;;1.10;;
29380;SDS011;16364;52.490;13.326;2023-01-05T04:21:20;2.73;;;1.13;;
29380;SDS011;16364;52.490;13.326;2023-01-05T04:23:45;5.07;;;1.27;;
29380;SDS011;16364;52.490;13.326;2023-01-05T04:26:10;3.30;;;1.37;;
29380;SDS011;16364;52.490;13.326;2023-01-05T04:28:36;6.93;;;1.33;;
29380;SDS011;16364;52.490;13.326;2023-01-05T04:31:01;4.03;;;1.20;;
29380;SDS011;16364;52.490;13.326;2023-01-05T04:33:26;3.70;;;1.50;;
29380;SDS011;16364;52.490;13.326;2023-01-05T04:35:52;4.47;;;1.57;;
29380;SDS011;16364;52.490;13.326;2023-01-05T04:38:17;4.90;;;1.23;;
29380;SDS011;16364;52.490;13.326;2023-01-05T04:40:46;2.97;;;1.20;;
29380;SDS011;16364;52.490;13.326;2023-01-05T04:43:11;2.00;;;1.20;;
29380;SDS011;16364;52.490;13.326;2023-01-05T04:45:37;2.97;;;1.07;;
29380;SDS011;16364;52.490;13.326;2023-01-05T04:48:02;6.70;;;1.37;;
29380;SDS011;16364;52.490;13.326;2023-01-05T04:50:27;3.17;;;1.47;;
29380;SDS011;16364;52.490;13.326;2023-01-05T04:52:53;4.27;;;1.30;;
29380;SDS011;16364;52.490;13.326;2023-01-05T04:55:18;7.77;;;1.17;;
29380;SDS011;16364;52.490;13.326;2023-01-05T04:57:44;2.30;;;1.13;;
29380;SDS011;16364;52.490;13.326;2023-01-05T05:00:09;2.97;;;1.60;;
29380;SDS011;16364;52.490;13.326;2023-01-05T05:02:35;8.90;;;1.70;;
29380;SDS011;16364;52.490;13.326;2023-01-05T05:05:00;3.90;;;1.37;;
29380;SDS011;16364;52.490;13.326;2023-01-05T05:07:25;3.67;;;1.30;;
29380;SDS011;16364;52.490;13.326;2023-01-05T05:09:51;4.10;;;1.67;;
29380;SDS011;16364;52.490;13.326;2023-01-05T05:12:16;4.90;;;1.43;;
29380;SDS011;16364;52.490;13.326;2023-01-05T05:14:44;4.77;;;1.67;;
29380;SDS011;16364;52.490;13.326;2023-01-05T05:17:10;4.80;;;1.80;;
29380;SDS011;16364;52.490;13.326;2023-01-05T05:19:35;7.40;;;1.57;;
29380;SDS011;16364;52.490;13.326;2023-01-05T05:22:00;2.50;;;1.63;;
29380;SDS011;16364;52.490;13.326;2023-01-05T05:24:25;7.40;;;1.70;;
29380;SDS011;16364;52.490;13.326;2023-01-05T05:26:51;9.17;;;1.90;;
29380;SDS011;16364;52.490;13.326;2023-01-05T05:29:16;4.53;;;2.10;;
29380;SDS011;16364;52.490;13.326;2023-01-05T05:31:41;8.03;;;1.73;;
29380;SDS011;16364;52.490;13.326;2023-01-05T05:34:06;5.10;;;1.70;;
29380;SDS011;16364;52.490;13.326;2023-01-05T05:36:31;8.40;;;2.10;;
29380;SDS011;16364;52.490;13.326;2023-01-05T05:38:57;4.53;;;1.57;;
29380;SDS011;16364;52.490;13.326;2023-01-05T05:41:23;13.97;;;1.80;;
29380;SDS011;16364;52.490;13.326;2023-01-05T05:43:48;4.97;;;2.10;;
29380;SDS011;16364;52.490;13.326;2023-01-05T05:46:13;6.07;;;1.73;;
29380;SDS011;16364;52.490;13.326;2023-01-05T05:48:39;4.90;;;1.30;;
29380;SDS011;16364;52.490;13.326;2023-01-05T05:51:04;3.60;;;1.50;;
29380;SDS011;16364;52.490;13.326;2023-01-05T05:53:29;2.10;;;1.50;;
29380;SDS011;16364;52.490;13.326;2023-01-05T05:55:54;8.47;;;1.60;;
29380;SDS011;16364;52.490;13.326;2023-01-05T05:58:20;8.03;;;1.60;;
29380;SDS011;16364;52.490;13.326;2023-01-05T06:00:45;7.63;;;1.40;;
29380;SDS011;16364;52.490;13.326;2023-01-05T06:03:11;3.93;;;1.10;;
29380;SDS011;16364;52.490;13.326;2023-01-05T06:05:36;4.13;;;1.10;;
29380;SDS011;16364;52.490;13.326;2023-01-05T06:08:01;4.70;;;1.37;;
29380;SDS011;16364;52.490;13.326;2023-01-05T06:10:27;5.20;;;1.80;;
29380;SDS011;16364;52.490;13.326;2023-01-05T06:12:52;6.73;;;1.40;;
29380;SDS011;16364;52.490;13.326;2023-01-05T06:15:18;3.00;;;1.30;;
29380;SDS011;16364;52.490;13.326;2023-01-05T06:17:44;2.43;;;1.50;;
29380;SDS011;16364;52.490;13.326;2023-01-05T06:20:09;4.50;;;1.23;;
29380;SDS011;16364;52.490;13.326;2023-01-05T06:22:35;5.40;;;1.17;;
29380;SDS011;16364;52.490;13.326;2023-01-05T06:25:00;3.83;;;1.30;;
29380;SDS011;16364;52.490;13.326;2023-01-05T06:27:25;1.67;;;1.20;;
29380;SDS011;16364;52.490;13.326;2023-01-05T06:29:50;4.40;;;1.20;;
29380;SDS011;16364;52.490;13.326;2023-01-05T06:32:16;3.00;;;1.40;;
29380;SDS011;16364;52.490;13.326;2023-01-05T06:34:41;1.83;;;1.30;;
29380;SDS011;16364;52.490;13.326;2023-01-05T06:37:06;1.30;;;1.20;;
29380;SDS011;16364;52.490;13.326;2023-01-05T06:39:31;5.37;;;1.30;;
29380;SDS011;16364;52.490;13.326;2023-01-05T06:41:56;1.47;;;1.30;;
29380;SDS011;16364;52.490;13.326;2023-01-05T06:44:22;2.80;;;1.40;;
29380;SDS011;16364;52.490;13.326;2023-01-05T06:46:47;2.47;;;1.07;;
29380;SDS011;16364;52.490;13.326;2023-01-05T06:49:12;2.70;;;1.10;;
29380;SDS011;16364;52.490;13.326;2023-01-05T06:51:38;3.67;;;1.23;;
29380;SDS011;16364;52.490;13.326;2023-01-05T06:54:04;1.70;;;1.00;;
29380;SDS011;16364;52.490;13.326;2023-01-05T06:56:29;1.37;;;1.10;;
29380;SDS011;16364;52.490;13.326;2023-01-05T06:58:55;1.00;;;0.83;;
29380;SDS011;16364;52.490;13.326;2023-01-05T07:01:20;2.67;;;1.00;;
29380;SDS011;16364;52.490;13.326;2023-01-05T07:03:45;1.80;;;0.90;;
29380;SDS011;16364;52.490;13.326;2023-01-05T07:06:12;1.77;;;0.90;;
29380;SDS011;16364;52.490;13.326;2023-01-05T07:08:38;1.70;;;0.97;;
29380;SDS011;16364;52.490;13.326;2023-01-05T07:11:03;1.80;;;0.80;;
29380;SDS011;16364;52.490;13.326;2023-01-05T07:13:28;2.00;;;0.97;;
29380;SDS011;16364;52.490;13.326;2023-01-05T07:15:53;2.30;;;0.80;;
29380;SDS011;16364;52.490;13.326;2023-01-05T07:18:19;1.00;;;0.80;;
29380;SDS011;16364;52.490;13.326;2023-01-05T07:20:44;2.20;;;1.07;;
29380;SDS011;16364;52.490;13.326;2023-01-05T07:23:09;2.30;;;0.90;;
29380;SDS011;16364;52.490;13.326;2023-01-05T07:25:35;0.60;;;0.60;;
29380;SDS011;16364;52.490;13.326;2023-01-05T07:28:00;3.10;;;0.80;;
29380;SDS011;16364;52.490;13.326;2023-01-05T07:30:25;2.20;;;0.80;;
29380;SDS011;16364;52.490;13.326;2023-01-05T07:32:50;2.00;;;0.70;;
29380;SDS011;16364;52.490;13.326;2023-01-05T07:35:16;1.27;;;0.90;;
29380;SDS011;16364;52.490;13.326;2023-01-05T07:37:41;1.07;;;0.70;;
29380;SDS011;16364;52.490;13.326;2023-01-05T07:40:08;3.33;;;0.70;;
29380;SDS011;16364;52.490;13.326;2023-01-05T07:42:34;0.70;;;0.70;;
29380;SDS011;16364;52.490;13.326;2023-01-05T07:44:59;1.23;;;0.80;;
29380;SDS011;16364;52.490;13.326;2023-01-05T07:47:24;1.07;;;0.67;;
29380;SDS011;16364;52.490;13.326;2023-01-05T07:49:49;0.87;;;0.60;;
29380;SDS011;16364;52.490;13.326;2023-01-05T07:52:14;0.80;;;0.70;;
29380;SDS011;16364;52.490;13.326;2023-01-05T07:54:41;0.80;;;0.80;;
29380;SDS011;16364;52.490;13.326;2023-01-05T07:57:06;1.10;;;0.70;;
29380;SDS011;16364;52.490;13.326;2023-01-05T07:59:32;1.63;;;0.63;;
29380;SDS011;16364;52.490;13.326;2023-01-05T08:01:57;0.50;;;0.50;;
29380;SDS011;16364;52.490;13.326;2023-01-05T08:04:22;1.37;;;0.70;;
29380;SDS011;16364;52.490;13.326;2023-01-05T08:06:48;1.23;;;0.70;;
29380;SDS011;16364;52.490;13.326;2023-01-05T08:09:13;0.80;;;0.67;;
29380;SDS011;16364;52.490;13.326;2023-01-05T08:11:57;1.03;;;0.93;;
29380;SDS011;16364;52.490;13.326;2023-01-05T08:14:22;0.70;;;0.60;;
29380;SDS011;16364;52.490;13.326;2023-01-05T08:16:47;0.60;;;0.60;;
29380;SDS011;16364;52.490;13.326;2023-01-05T08:19:13;0.60;;;0.60;;
29380;SDS011;16364;52.490;13.326;2023-01-05T08:21:38;0.50;;;0.50;;
29380;SDS011;16364;52.490;13.326;2023-01-05T08:24:03;0.60;;;0.60;;
29380;SDS011;16364;52.490;13.326;2023-01-05T08:26:29;0.80;;;0.70;;
29380;SDS011;16364;52.490;13.326;2023-01-05T08:28:54;0.70;;;0.70;;
29380;SDS011;16364;52.490;13.326;2023-01-05T08:33:44;1.30;;;0.90;;
29380;SDS011;16364;52.490;13.326;2023-01-05T08:36:11;1.33;;;0.80;;
29380;SDS011;16364;52.490;13.326;2023-01-05T08:38:37;0.60;;;0.60;;
29380;SDS011;16364;52.490;13.326;2023-01-05T08:41:02;0.80;;;0.77;;
29380;SDS011;16364;52.490;13.326;2023-01-05T08:43:27;1.73;;;1.03;;
29380;SDS011;16364;52.490;13.326;2023-01-05T08:45:53;1.03;;;0.80;;
29380;SDS011;16364;52.490;13.326;2023-01-05T08:48:18;2.80;;;0.90;;
29380;SDS011;16364;52.490;13.326;2023-01-05T08:50:43;0.70;;;0.60;;
29380;SDS011;16364;52.490;13.326;2023-01-05T08:53:10;1.23;;;1.10;;
29380;SDS011;16364;52.490;13.326;2023-01-05T08:55:35;1.10;;;0.90;;
29380;SDS011;16364;52.490;13.326;2023-01-05T08:58:00;1.00;;;0.83;;
29380;SDS011;16364;52.490;13.326;2023-01-05T09:00:26;1.00;;;0.70;;
29380;SDS011;16364;52.490;13.326;2023-01-05T09:02:51;1.00;;;0.90;;
29380;SDS011;16364;52.490;13.326;2023-01-05T09:05:16;1.87;;;0.93;;
29380;SDS011;16364;52.490;13.326;2023-01-05T09:07:42;1.77;;;0.70;;
29380;SDS011;16364;52.490;13.326;2023-01-05T09:10:08;0.70;;;0.70;;
29380;SDS011;16364;52.490;13.326;2023-01-05T09:12:34;0.90;;;0.80;;
29380;SDS011;16364;52.490;13.326;2023-01-05T09:15:00;2.03;;;0.80;;
29380;SDS011;16364;52.490;13.326;2023-01-05T09:17:25;0.87;;;0.80;;
29380;SDS011;16364;52.490;13.326;2023-01-05T09:19:50;1.10;;;1.00;;
29380;SDS011;16364;52.490;13.326;2023-01-05T09:22:16;0.87;;;0.70;;
29380;SDS011;16364;52.490;13.326;2023-01-05T09:24:41;0.93;;;0.80;;
29380;SDS011;16364;52.490;13.326;2023-01-05T09:27:06;3.00;;;1.20;;
29380;SDS011;16364;52.490;13.326;2023-01-05T09:29:31;1.10;;;1.00;;
29380;SDS011;16364;52.490;13.326;2023-01-05T09:31:57;0.80;;;0.80;;
29380;SDS011;16364;52.490;13.326;2023-01-05T09:34:22;1.73;;;0.80;;
29380;SDS011;16364;52.490;13.326;2023-01-05T09:36:47;2.30;;;0.80;;
29380;SDS011;16364;52.490;13.326;2023-01-05T09:39:12;2.10;;;1.70;;
29380;SDS011;16364;52.490;13.326;2023-01-05T09:41:42;1.33;;;0.97;;
29380;SDS011;16364;52.490;13.326;2023-01-05T09:44:19;2.50;;;0.90;;
29380;SDS011;16364;52.490;13.326;2023-01-05T09:46:48;2.50;;;0.90;;
29380;SDS011;16364;52.490;13.326;2023-01-05T09:49:15;2.17;;;0.70;;
29380;SDS011;16364;52.490;13.326;2023-01-05T09:51:42;2.87;;;1.47;;
29380;SDS011;16364;52.490;13.326;2023-01-05T09:54:17;1.73;;;0.70;;
29380;SDS011;16364;52.490;13.326;2023-01-05T09:56:43;1.10;;;0.90;;
29380;SDS011;16364;52.490;13.326;2023-01-05T10:01:55;2.03;;;0.80;;
29380;SDS011;16364;52.490;13.326;2023-01-05T10:04:23;2.00;;;0.90;;
29380;SDS011;16364;52.490;13.326;2023-01-05T10:06:50;1.13;;;1.00;;
29380;SDS011;16364;52.490;13.326;2023-01-05T10:09:20;2.43;;;1.20;;
29380;SDS011;16364;52.490;13.326;2023-01-05T10:11:50;2.40;;;0.97;;
29380;SDS011;16364;52.490;13.326;2023-01-05T10:17:17;0.80;;;0.70;;
29380;SDS011;16364;52.490;13.326;2023-01-05T10:19:43;2.30;;;0.90;;
29380;SDS011;16364;52.490;13.326;2023-01-05T10:24:54;7.23;;;1.20;;
29380;SDS011;16364;52.490;13.326;2023-01-05T10:29:47;1.40;;;1.13;;
29380;SDS011;16364;52.490;13.326;2023-01-05T10:32:23;2.07;;;0.80;;
29380;SDS011;16364;52.490;13.326;2023-01-05T10:40:09;4.90;;;0.83;;
29380;SDS011;16364;52.490;13.326;2023-01-05T10:45:10;3.40;;;0.97;;
29380;SDS011;16364;52.490;13.326;2023-01-05T10:47:36;1.43;;;1.10;;
29380;SDS011;16364;52.490;13.326;2023-01-05T10:50:03;2.00;;;0.80;;
29380;SDS011;16364;52.490;13.326;2023-01-05T10:52:41;2.70;;;0.87;;
29380;SDS011;16364;52.490;13.326;2023-01-05T10:55:10;1.13;;;0.80;;
29380;SDS011;16364;52.490;13.326;2023-01-05T10:57:38;3.23;;;1.20;;
29380;SDS011;16364;52.490;13.326;2023-01-05T11:02:33;1.63;;;0.80;;
29380;SDS011;16364;52.490;13.326;2023-01-05T11:05:04;1.70;;;0.93;;
29380;SDS011;16364;52.490;13.326;2023-01-05T11:07:30;1.50;;;1.00;;
29380;SDS011;16364;52.490;13.326;2023-01-05T11:09:55;3.83;;;1.20;;
29380;SDS011;16364;52.490;13.326;2023-01-05T11:12:21;2.03;;;1.07;;
29380;SDS011;16364;52.490;13.326;2023-01-05T11:14:56;2.67;;;1.40;;
29380;SDS011;16364;52.490;13.326;2023-01-05T11:17:22;4.70;;;1.27;;
29380;SDS011;16364;52.490;13.326;2023-01-05T11:19:49;1.37;;;0.90;;
29380;SDS011;16364;52.490;13.326;2023-01-05T11:22:36;1.40;;;1.00;;
29380;SDS011;16364;52.490;13.326;2023-01-05T11:25:23;3.80;;;1.10;;
29380;SDS011;16364;52.490;13.326;2023-01-05T11:27:48;3.27;;;1.00;;
29380;SDS011;16364;52.490;13.326;2023-01-05T11:30:28;6.33;;;1.37;;
29380;SDS011;16364;52.490;13.326;2023-01-05T11:32:53;3.57;;;1.00;;
29380;SDS011;16364;52.490;13.326;2023-01-05T11:35:19;4.50;;;1.00;;
29380;SDS011;16364;52.490;13.326;2023-01-05T11:37:45;2.93;;;0.90;;
29380;SDS011;16364;52.490;13.326;2023-01-05T11:40:17;1.43;;;1.10;;
29380;SDS011;16364;52.490;13.326;2023-01-05T11:42:43;1.83;;;0.93;;
29380;SDS011;16364;52.490;13.326;2023-01-05T11:45:21;2.50;;;1.27;;
29380;SDS011;16364;52.490;13.326;2023-01-05T11:47:49;4.17;;;1.00;;
29380;SDS011;16364;52.490;13.326;2023-01-05T11:50:18;4.80;;;1.10;;
29380;SDS011;16364;52.490;13.326;2023-01-05T11:52:46;1.97;;;0.90;;
29380;SDS011;16364;52.490;13.326;2023-01-05T11:57:44;6.33;;;1.57;;
29380;SDS011;16364;52.490;13.326;2023-01-05T12:00:26;4.40;;;0.83;;
29380;SDS011;16364;52.490;13.326;2023-01-05T12:05:30;3.03;;;1.47;;
29380;SDS011;16364;52.490;13.326;2023-01-05T12:08:22;2.53;;;0.90;;
29380;SDS011;16364;52.490;13.326;2023-01-05T12:15:57;2.93;;;1.10;;
29380;SDS011;16364;52.490;13.326;2023-01-05T12:21:01;3.23;;;0.93;;
29380;SDS011;16364;52.490;13.326;2023-01-05T12:34:00;1.40;;;0.87;;
29380;SDS011;16364;52.490;13.326;2023-01-05T12:50:13;3.30;;;1.10;;
29380;SDS011;16364;52.490;13.326;2023-01-05T12:52:44;7.03;;;1.20;;
29380;SDS011;16364;52.490;13.326;2023-01-05T12:55:13;1.30;;;0.90;;
29380;SDS011;16364;52.490;13.326;2023-01-05T12:57:42;2.03;;;0.83;;
29380;SDS011;16364;52.490;13.326;2023-01-05T13:00:19;2.20;;;1.13;;
29380;SDS011;16364;52.490;13.326;2023-01-05T13:02:47;1.23;;;0.87;;
29380;SDS011;16364;52.490;13.326;2023-01-05T13:05:19;1.30;;;0.90;;
29380;SDS011;16364;52.490;13.326;2023-01-05T13:07:55;1.53;;;0.90;;
29380;SDS011;16364;52.490;13.326;2023-01-05T13:12:54;2.10;;;1.10;;
29380;SDS011;16364;52.490;13.326;2023-01-05T13:15:22;3.33;;;1.00;;
29380;SDS011;16364;52.490;13.326;2023-01-05T13:17:49;3.27;;;1.17;;
29380;SDS011;16364;52.490;13.326;2023-01-05T13:22:40;3.33;;;1.33;;
29380;SDS011;16364;52.490;13.326;2023-01-05T13:25:13;5.13;;;1.90;;
29380;SDS011;16364;52.490;13.326;2023-01-05T13:27:40;1.87;;;0.93;;
29380;SDS011;16364;52.490;13.326;2023-01-05T13:30:07;1.53;;;0.93;;
29380;SDS011;16364;52.490;13.326;2023-01-05T13:53:49;3.73;;;1.70;;
29380;SDS011;16364;52.490;13.326;2023-01-05T13:56:34;2.60;;;1.23;;
29380;SDS011;16364;52.490;13.326;2023-01-05T13:59:03;3.33;;;1.13;;
29380;SDS011;16364;52.490;13.326;2023-01-05T14:01:40;4.50;;;2.00;;
29380;SDS011;16364;52.490;13.326;2023-01-05T14:04:14;4.83;;;1.10;;
29380;SDS011;16364;52.490;13.326;2023-01-05T14:06:42;3.67;;;1.20;;
29380;SDS011;16364;52.490;13.326;2023-01-05T14:09:13;2.27;;;1.10;;
29380;SDS011;16364;52.490;13.326;2023-01-05T14:12:02;6.23;;;1.07;;
29380;SDS011;16364;52.490;13.326;2023-01-05T14:14:26;1.80;;;1.00;;
29380;SDS011;16364;52.490;13.326;2023-01-05T14:16:52;1.63;;;1.10;;
29380;SDS011;16364;52.490;13.326;2023-01-05T14:22:03;1.70;;;1.00;;
29380;SDS011;16364;52.490;13.326;2023-01-05T14:24:45;4.83;;;1.23;;
29380;SDS011;16364;52.490;13.326;2023-01-05T14:27:20;3.23;;;1.10;;
29380;SDS011;16364;52.490;13.326;2023-01-05T14:37:37;1.73;;;0.90;;
29380;SDS011;16364;52.490;13.326;2023-01-05T14:42:45;1.90;;;0.90;;
29380;SDS011;16364;52.490;13.326;2023-01-05T14:45:21;1.50;;;0.90;;
29380;SDS011;16364;52.490;13.326;2023-01-05T14:47:48;2.17;;;1.20;;
29380;SDS011;16364;52.490;13.326;2023-01-05T14:50:33;3.23;;;1.27;;
29380;SDS011;16364;52.490;13.326;2023-01-05T14:55:35;0.80;;;0.70;;
29380;SDS011;16364;52.490;13.326;2023-01-05T14:58:01;7.83;;;1.17;;
29380;SDS011;16364;52.490;13.326;2023-01-05T15:02:59;1.60;;;1.10;;
29380;SDS011;16364;52.490;13.326;2023-01-05T15:05:25;4.60;;;1.20;;
29380;SDS011;16364;52.490;13.326;2023-01-05T15:08:05;2.10;;;1.10;;
29380;SDS011;16364;52.490;13.326;2023-01-05T15:20:59;1.10;;;0.90;;
29380;SDS011;16364;52.490;13.326;2023-01-05T15:23:33;3.50;;;1.00;;
29380;SDS011;16364;52.490;13.326;2023-01-05T15:31:21;3.33;;;0.93;;
29380;SDS011;16364;52.490;13.326;2023-01-05T15:36:30;1.87;;;1.00;;
29380;SDS011;16364;52.490;13.326;2023-01-05T15:38:55;1.63;;;0.83;;
29380;SDS011;16364;52.490;13.326;2023-01-05T15:41:22;3.83;;;1.07;;
29380;SDS011;16364;52.490;13.326;2023-01-05T15:43:49;6.40;;;1.20;;
29380;SDS011;16364;52.490;13.326;2023-01-05T15:46:21;1.73;;;1.03;;
29380;SDS011;16364;52.490;13.326;2023-01-05T15:48:49;2.73;;;0.97;;
29380;SDS011;16364;52.490;13.326;2023-01-05T15:51:20;2.37;;;1.10;;
29380;SDS011;16364;52.490;13.326;2023-01-05T15:53:51;5.40;;;1.10;;
29380;SDS011;16364;52.490;13.326;2023-01-05T15:56:28;2.03;;;1.20;;
29380;SDS011;16364;52.490;13.326;2023-01-05T15:58:54;1.50;;;1.10;;
29380;SDS011;16364;52.490;13.326;2023-01-05T16:01:19;1.33;;;0.93;;
29380;SDS011;16364;52.490;13.326;2023-01-05T16:03:45;2.40;;;1.13;;
29380;SDS011;16364;52.490;13.326;2023-01-05T16:08:46;8.20;;;1.00;;
29380;SDS011;16364;52.490;13.326;2023-01-05T16:11:14;4.03;;;1.00;;
29380;SDS011;16364;52.490;13.326;2023-01-05T16:13:51;1.10;;;1.00;;
29380;SDS011;16364;52.490;13.326;2023-01-05T16:17:01;2.10;;;1.00;;
29380;SDS011;16364;52.490;13.326;2023-01-05T16:19:08;1.53;;;1.00;;
29380;SDS011;16364;52.490;13.326;2023-01-05T16:21:39;2.47;;;1.17;;
29380;SDS011;16364;52.490;13.326;2023-01-05T16:24:14;2.20;;;1.43;;
29380;SDS011;16364;52.490;13.326;2023-01-05T16:26:40;2.93;;;1.23;;
29380;SDS011;16364;52.490;13.326;2023-01-05T16:31:50;2.80;;;1.20;;
29380;SDS011;16364;52.490;13.326;2023-01-05T16:34:18;2.70;;;1.10;;
29380;SDS011;16364;52.490;13.326;2023-01-05T16:39:30;6.53;;;1.70;;
29380;SDS011;16364;52.490;13.326;2023-01-05T16:44:56;3.73;;;1.20;;
29380;SDS011;16364;52.490;13.326;2023-01-05T16:47:39;2.80;;;1.20;;
29380;SDS011;16364;52.490;13.326;2023-01-05T16:55:36;1.37;;;0.97;;
29380;SDS011;16364;52.490;13.326;2023-01-05T16:58:03;2.47;;;1.10;;
29380;SDS011;16364;52.490;13.326;2023-01-05T17:02:58;1.87;;;1.47;;
29380;SDS011;16364;52.490;13.326;2023-01-05T17:05:24;2.53;;;1.20;;
29380;SDS011;16364;52.490;13.326;2023-01-05T17:07:55;3.27;;;1.10;;
29380;SDS011;16364;52.490;13.326;2023-01-05T17:10:22;4.40;;;1.10;;
29380;SDS011;16364;52.490;13.326;2023-01-05T17:12:51;3.83;;;1.17;;
29380;SDS011;16364;52.490;13.326;2023-01-05T17:15:19;3.90;;;1.30;;
29380;SDS011;16364;52.490;13.326;2023-01-05T17:17:46;3.93;;;1.83;;
29380;SDS011;16364;52.490;13.326;2023-01-05T17:20:11;4.33;;;1.10;;
29380;SDS011;16364;52.490;13.326;2023-01-05T17:22:36;2.80;;;1.80;;
29380;SDS011;16364;52.490;13.326;2023-01-05T17:25:02;2.87;;;1.20;;
29380;SDS011;16364;52.490;13.326;2023-01-05T17:27:27;1.70;;;1.00;;
29380;SDS011;16364;52.490;13.326;2023-01-05T17:29:52;1.83;;;1.00;;
29380;SDS011;16364;52.490;13.326;2023-01-05T17:32:18;2.77;;;1.23;;